KMIW/MIW METAR and TAF weather

Enter ICAO airport designator
Station Type Date Time Source
KMIW METAR 2020/09/18 16:53 UTC NOAA

KMIW 181653Z AUTO 06005KT 10SM CLR 15/07 A3038 RMK AO2 SLP288 T01500072


Station Type Date Time Source
KMIW Decoded METAR 2020/09/18 16:53 UTC NOAA

MARSHALLTOWN MUNICIPAL AIRPORT , IA, United States (KMIW) 42-07N 92-55W 296M
Sep 18, 2020 - 12:53 PM EDT / 2020.09.18 1653 UTC
Wind: from the ENE (060 degrees) at 6 MPH (5 KT):0
Visibility: 10 mile(s):0
Sky conditions: clear
Temperature: 59.0 F (15.0 C)
Dew Point: 45.0 F (7.2 C)
Relative Humidity: 59%
Pressure (altimeter): 30.38 in. Hg (1028 hPa)
ob: KMIW 181653Z AUTO 06005KT 10SM CLR 15/07 A3038 RMK AO2 SLP288 T01500072
cycle: 17

Station Type Date Time Source
KMIW TAF UTC NOAA

Error!

Example: see airport list